Time;durP1;ratioP1;P1;durP2;ratioP2;P2;SDS_P1;SDS_P2;PMS_P1;PMS_P2;Temp;Humidity;BMP_temperature;BMP_pressure;BME280_temperature;BME280_humidity;BME280_pressure;Samples;Min_cycle;Max_cycle;Signal;HPM_P1;HPM_P2
2023/04/19 00:02:01;;;;;;;;;;;16.30;42.50;;;;;;5051475;28;19916;-58
2023/04/19 00:04:27;;;;;;;;;;;16.30;42.60;;;;;;5053173;28;19939;-58
2023/04/19 00:06:52;;;;;;;;;;;16.20;42.70;;;;;;5040785;28;19913;-58
2023/04/19 00:09:18;;;;;;;;;;;16.20;42.80;;;;;;5031665;28;19974;-58
2023/04/19 00:11:43;;;;;;;;;;;16.10;43.00;;;;;;5032347;28;19917;-58
2023/04/19 00:14:09;;;;;;;;;;;16.00;43.10;;;;;;5032324;28;20012;-58
2023/04/19 00:16:34;;;;;;;;;;;16.00;43.50;;;;;;5032613;28;19941;-58
2023/04/19 00:19:00;;;;;;;;;;;15.90;43.70;;;;;;5032276;28;19928;-59
2023/04/19 00:21:26;;;;;;;;;;;15.90;43.80;;;;;;5030938;28;19913;-59
2023/04/19 00:23:52;;;;;;;;;;;15.80;43.90;;;;;;5032025;28;19917;-59
2023/04/19 00:26:18;;;;;;;;;;;15.80;44.10;;;;;;5032445;28;20011;-61
2023/04/19 00:28:44;;;;;;;;;;;15.80;44.10;;;;;;5031804;28;20020;-58
2023/04/19 00:31:09;;;;;;;;;;;15.80;44.10;;;;;;5032378;28;19920;-60
2023/04/19 00:33:35;;;;;;;;;;;15.70;44.10;;;;;;5030517;28;20003;-58
2023/04/19 00:36:00;;;;;;;;;;;15.70;44.10;;;;;;5040919;28;19921;-58
2023/04/19 00:38:26;;;;;;;;;;;15.60;44.10;;;;;;5031962;28;19921;-61
2023/04/19 00:40:51;;;;;;;;;;;15.60;44.10;;;;;;5031907;28;19917;-61
2023/04/19 00:43:18;;;;;;;;;;;15.50;44.10;;;;;;5031957;28;19921;-67
2023/04/19 00:45:44;;;;;;;;;;;15.50;44.10;;;;;;5032163;28;19944;-66
2023/04/19 00:48:10;;;;;;;;;;;15.50;44.10;;;;;;5032059;28;20375;-59
2023/04/19 00:50:35;;;;;;;;;;;15.50;44.00;;;;;;5031598;28;20008;-59
2023/04/19 00:53:01;;;;;;;;;;;15.40;44.10;;;;;;5032011;28;20280;-61
2023/04/19 00:55:26;;;;;;;;;;;15.40;44.10;;;;;;5031681;28;19921;-58
2023/04/19 00:57:52;;;;;;;;;;;15.30;44.10;;;;;;5031093;28;19917;-58
2023/04/19 01:00:18;;;;;;;;;;;15.20;44.20;;;;;;5031278;28;19921;-58
2023/04/19 01:02:44;;;;;;;;;;;15.10;44.30;;;;;;5031274;28;20266;-58
2023/04/19 01:05:09;;;;;;;;;;;15.10;44.30;;;;;;5030786;28;19927;-58
2023/04/19 01:07:35;;;;;;;;;;;15.00;44.30;;;;;;5031915;28;19913;-58
2023/04/19 01:10:00;;;;;;;;;;;15.00;44.30;;;;;;5031121;28;19921;-58
2023/04/19 01:12:26;;;;;;;;;;;14.90;44.40;;;;;;5031187;28;19932;-58
2023/04/19 01:14:51;;;;;;;;;;;14.80;44.40;;;;;;5031348;28;20429;-61
2023/04/19 01:17:18;;;;;;;;;;;14.80;44.30;;;;;;5031460;28;19937;-58
2023/04/19 01:19:43;;;;;;;;;;;14.80;44.30;;;;;;5031100;28;20404;-58
2023/04/19 01:22:09;;;;;;;;;;;14.80;44.40;;;;;;5031261;28;19913;-58
2023/04/19 01:24:34;;;;;;;;;;;14.70;44.50;;;;;;5031262;28;20380;-58
2023/04/19 01:27:01;;;;;;;;;;;14.70;44.60;;;;;;5030748;28;19924;-58
2023/04/19 01:29:26;;;;;;;;;;;14.70;44.60;;;;;;5030908;28;19917;-58
2023/04/19 01:31:52;;;;;;;;;;;14.70;44.30;;;;;;5031024;28;19920;-57
2023/04/19 01:34:24;;;;;;;;;;;14.70;43.70;;;;;;5031688;28;19932;-57
2023/04/19 01:36:49;;;;;;;;;;;14.60;43.50;;;;;;5053492;28;19908;-60
2023/04/19 01:39:14;;;;;;;;;;;14.70;43.30;;;;;;5034904;28;19927;-58
2023/04/19 01:41:40;;;;;;;;;;;14.70;43.10;;;;;;5035683;28;19978;-59
2023/04/19 01:44:05;;;;;;;;;;;14.70;43.20;;;;;;5034923;28;20353;-59
2023/04/19 01:46:31;;;;;;;;;;;14.70;43.40;;;;;;5034441;28;19929;-58
2023/04/19 01:48:56;;;;;;;;;;;14.70;43.60;;;;;;5034991;28;19921;-64
2023/04/19 01:51:22;;;;;;;;;;;14.70;43.80;;;;;;5033285;28;20277;-58
2023/04/19 01:53:52;;;;;;;;;;;14.70;43.90;;;;;;5034664;28;20376;-58
2023/04/19 01:56:18;;;;;;;;;;;14.70;44.00;;;;;;5034986;28;19917;-58
2023/04/19 01:58:43;;;;;;;;;;;14.70;44.10;;;;;;5035215;28;19921;-58
2023/04/19 02:01:11;;;;;;;;;;;14.70;44.00;;;;;;5053878;28;19921;-59
2023/04/19 02:03:37;;;;;;;;;;;14.70;43.90;;;;;;5036732;28;19917;-58
2023/04/19 02:06:02;;;;;;;;;;;14.60;43.70;;;;;;5034606;28;19927;-62
2023/04/19 02:08:28;;;;;;;;;;;14.70;43.70;;;;;;5034941;28;19913;-58
2023/04/19 02:10:53;;;;;;;;;;;14.70;43.70;;;;;;5034879;28;19909;-58
2023/04/19 02:13:19;;;;;;;;;;;14.70;43.80;;;;;;5034614;28;19921;-59
2023/04/19 02:15:45;;;;;;;;;;;14.60;43.80;;;;;;5034202;28;19913;-59
2023/04/19 02:18:10;;;;;;;;;;;14.60;43.70;;;;;;5035046;28;19991;-59
2023/04/19 02:20:36;;;;;;;;;;;14.50;43.50;;;;;;5034259;28;19924;-59
2023/04/19 02:23:01;;;;;;;;;;;14.40;43.30;;;;;;5034508;28;20259;-59
2023/04/19 02:25:26;;;;;;;;;;;14.30;42.90;;;;;;5034360;28;19920;-59
2023/04/19 02:27:52;;;;;;;;;;;14.30;42.80;;;;;;5033465;28;19939;-58
2023/04/19 02:30:18;;;;;;;;;;;14.20;42.60;;;;;;5033605;28;19921;-59
2023/04/19 02:32:43;;;;;;;;;;;14.10;42.20;;;;;;5034837;28;19914;-59
2023/04/19 02:35:09;;;;;;;;;;;14.00;42.00;;;;;;5038141;28;20034;-58
2023/04/19 02:37:34;;;;;;;;;;;13.90;41.60;;;;;;5034789;28;19913;-58
2023/04/19 02:40:00;;;;;;;;;;;13.80;41.30;;;;;;5033944;28;19947;-59
2023/04/19 02:42:25;;;;;;;;;;;13.70;41.00;;;;;;5034852;28;19917;-58
2023/04/19 02:44:50;;;;;;;;;;;13.60;40.90;;;;;;5034019;28;19959;-59
2023/04/19 02:47:16;;;;;;;;;;;13.60;40.70;;;;;;5033906;28;19921;-58
2023/04/19 02:49:41;;;;;;;;;;;13.50;40.50;;;;;;5033693;28;19917;-59
2023/04/19 02:52:07;;;;;;;;;;;13.40;40.10;;;;;;5034134;28;19913;-59
2023/04/19 02:54:33;;;;;;;;;;;13.40;39.60;;;;;;5033819;28;19924;-58
2023/04/19 02:56:59;;;;;;;;;;;13.40;39.40;;;;;;5034357;28;19909;-59
2023/04/19 02:59:25;;;;;;;;;;;13.30;38.90;;;;;;5036594;28;19928;-58
2023/04/19 03:01:51;;;;;;;;;;;13.40;38.30;;;;;;5033388;28;20000;-59
2023/04/19 03:04:16;;;;;;;;;;;13.40;37.90;;;;;;5033162;28;19956;-59
2023/04/19 03:06:43;;;;;;;;;;;13.40;37.60;;;;;;5033792;28;19913;-59
2023/04/19 03:09:09;;;;;;;;;;;13.40;37.40;;;;;;5033142;28;19917;-59
2023/04/19 03:11:35;;;;;;;;;;;13.40;37.00;;;;;;5033805;28;20304;-59
2023/04/19 03:14:01;;;;;;;;;;;13.40;36.80;;;;;;5032675;28;20282;-61
2023/04/19 03:16:29;;;;;;;;;;;13.40;36.50;;;;;;5033592;28;19924;-59
2023/04/19 03:18:54;;;;;;;;;;;13.40;36.50;;;;;;5033612;28;19952;-59
2023/04/19 03:21:20;;;;;;;;;;;13.40;36.30;;;;;;5033532;28;19928;-58
2023/04/19 03:23:45;;;;;;;;;;;13.40;36.20;;;;;;5033117;28;19924;-62
2023/04/19 03:26:11;;;;;;;;;;;13.30;36.20;;;;;;5033183;28;19965;-62
2023/04/19 03:28:36;;;;;;;;;;;13.30;36.10;;;;;;5033258;28;19966;-62
2023/04/19 03:31:02;;;;;;;;;;;13.20;36.10;;;;;;5032974;28;20014;-63
2023/04/19 03:33:27;;;;;;;;;;;13.10;36.10;;;;;;5032959;28;20406;-64
2023/04/19 03:35:56;;;;;;;;;;;13.00;36.30;;;;;;5037928;28;19966;-62
2023/04/19 03:38:21;;;;;;;;;;;12.90;36.40;;;;;;5032680;28;19930;-62
2023/04/19 03:40:46;;;;;;;;;;;12.80;36.60;;;;;;5032494;28;19929;-62
2023/04/19 03:43:12;;;;;;;;;;;12.70;36.70;;;;;;5031532;28;19914;-62
2023/04/19 03:45:37;;;;;;;;;;;12.70;36.90;;;;;;5032951;28;19975;-62
2023/04/19 03:48:03;;;;;;;;;;;12.50;37.00;;;;;;5033064;28;19913;-62
2023/04/19 03:50:28;;;;;;;;;;;12.40;37.20;;;;;;5033152;28;19917;-64
2023/04/19 03:52:54;;;;;;;;;;;12.30;37.40;;;;;;5032684;28;19936;-64
2023/04/19 03:55:19;;;;;;;;;;;12.30;37.60;;;;;;5031735;28;19917;-63
2023/04/19 03:57:44;;;;;;;;;;;12.20;37.70;;;;;;5033104;28;19942;-62
2023/04/19 04:00:11;;;;;;;;;;;12.10;37.80;;;;;;5042197;28;20237;-62
2023/04/19 04:02:36;;;;;;;;;;;12.00;37.90;;;;;;5045617;28;20222;-62
2023/04/19 04:05:02;;;;;;;;;;;11.90;38.00;;;;;;5032405;28;19940;-62
2023/04/19 04:07:27;;;;;;;;;;;11.90;38.10;;;;;;5032214;28;19913;-62
2023/04/19 04:09:53;;;;;;;;;;;11.80;38.20;;;;;;5032485;28;19962;-62
2023/04/19 04:12:18;;;;;;;;;;;11.80;38.30;;;;;;5032648;28;19995;-62
2023/04/19 04:14:44;;;;;;;;;;;11.70;38.40;;;;;;5032429;28;20067;-62
2023/04/19 04:17:09;;;;;;;;;;;11.70;38.50;;;;;;5032215;28;20356;-62
2023/04/19 04:19:35;;;;;;;;;;;11.70;38.70;;;;;;5032601;28;20303;-63
2023/04/19 04:22:00;;;;;;;;;;;11.60;38.80;;;;;;5031999;28;19967;-61
2023/04/19 04:24:26;;;;;;;;;;;11.50;38.80;;;;;;5032054;28;19925;-62
2023/04/19 04:26:52;;;;;;;;;;;11.50;39.00;;;;;;5031939;28;19967;-62
2023/04/19 04:29:17;;;;;;;;;;;11.40;39.10;;;;;;5031878;28;20361;-62
2023/04/19 04:31:43;;;;;;;;;;;11.40;39.40;;;;;;5031864;28;19913;-62
2023/04/19 04:34:08;;;;;;;;;;;11.40;39.60;;;;;;5031807;28;19920;-62
2023/04/19 04:36:35;;;;;;;;;;;11.40;39.80;;;;;;5049615;28;19919;-60
2023/04/19 04:39:01;;;;;;;;;;;11.50;39.70;;;;;;5051528;28;19947;-60
2023/04/19 04:41:26;;;;;;;;;;;11.60;39.60;;;;;;5051586;28;19912;-64
2023/04/19 04:43:52;;;;;;;;;;;11.50;39.50;;;;;;5043741;28;19917;-62
2023/04/19 04:46:17;;;;;;;;;;;11.50;39.50;;;;;;5031519;28;20280;-62
2023/04/19 04:48:43;;;;;;;;;;;11.40;39.60;;;;;;5031617;28;20284;-62
2023/04/19 04:51:08;;;;;;;;;;;11.40;39.90;;;;;;5031034;28;19917;-62
2023/04/19 04:53:34;;;;;;;;;;;11.30;40.00;;;;;;5031103;28;19917;-63
2023/04/19 04:56:02;;;;;;;;;;;11.30;40.20;;;;;;5031579;28;20392;-61
2023/04/19 04:58:28;;;;;;;;;;;11.20;40.30;;;;;;5031662;28;20472;-62
2023/04/19 05:00:53;;;;;;;;;;;11.20;40.40;;;;;;5041010;28;20011;-62
2023/04/19 05:03:19;;;;;;;;;;;11.20;40.50;;;;;;5029777;28;19921;-63
2023/04/19 05:05:44;;;;;;;;;;;11.20;40.50;;;;;;5030764;28;20340;-62
2023/04/19 05:08:10;;;;;;;;;;;11.20;40.50;;;;;;5031588;28;19928;-62
2023/04/19 05:10:35;;;;;;;;;;;11.30;40.50;;;;;;5030734;28;20332;-62
2023/04/19 05:13:00;;;;;;;;;;;11.30;40.40;;;;;;5029002;28;19917;-60
2023/04/19 05:15:26;;;;;;;;;;;11.30;40.30;;;;;;5029309;28;19928;-61
2023/04/19 05:17:57;;;;;;;;;;;11.40;40.30;;;;;;5029121;28;19921;-62
2023/04/19 05:20:23;;;;;;;;;;;11.40;40.20;;;;;;5028449;28;19917;-63
2023/04/19 05:22:48;;;;;;;;;;;11.50;40.20;;;;;;5029438;28;20253;-61
2023/04/19 05:25:13;;;;;;;;;;;11.60;40.00;;;;;;5029256;28;19917;-61
2023/04/19 05:27:39;;;;;;;;;;;11.60;40.10;;;;;;5030046;28;19913;-58
2023/04/19 05:30:05;;;;;;;;;;;11.70;40.20;;;;;;5030781;28;19920;-59
2023/04/19 05:32:31;;;;;;;;;;;11.70;40.20;;;;;;5030600;28;20291;-58
2023/04/19 05:34:56;;;;;;;;;;;11.80;40.40;;;;;;5035507;28;19916;-60
2023/04/19 05:37:23;;;;;;;;;;;11.80;40.50;;;;;;5032723;28;19913;-59
2023/04/19 05:39:48;;;;;;;;;;;12.00;40.50;;;;;;5030967;28;19929;-58
2023/04/19 05:42:14;;;;;;;;;;;12.10;40.50;;;;;;5031407;28;19913;-59
2023/04/19 05:44:40;;;;;;;;;;;12.20;40.30;;;;;;5031062;28;19937;-59
2023/04/19 05:47:05;;;;;;;;;;;12.40;40.10;;;;;;5031097;28;19921;-60
2023/04/19 05:49:31;;;;;;;;;;;12.50;40.00;;;;;;5031022;28;19928;-59
2023/04/19 05:51:56;;;;;;;;;;;12.60;39.80;;;;;;5030797;28;20291;-58
2023/04/19 05:54:22;;;;;;;;;;;12.70;39.80;;;;;;5030622;28;20383;-58
2023/04/19 05:56:47;;;;;;;;;;;12.80;39.70;;;;;;5031653;28;19935;-59
2023/04/19 05:59:13;;;;;;;;;;;13.00;39.70;;;;;;5033632;28;20340;-59
2023/04/19 06:01:38;;;;;;;;;;;13.30;39.70;;;;;;5028751;28;19917;-58
2023/04/19 06:04:04;;;;;;;;;;;13.50;39.20;;;;;;5017404;28;20443;-59
2023/04/19 06:06:30;;;;;;;;;;;13.80;39.00;;;;;;5023858;28;20308;-57
2023/04/19 06:08:55;;;;;;;;;;;14.00;38.40;;;;;;5010437;28;19913;-57
2023/04/19 06:11:21;;;;;;;;;;;14.30;38.50;;;;;;5028127;28;20354;-57
2023/04/19 06:13:47;;;;;;;;;;;14.70;38.70;;;;;;5024650;28;20340;-57
2023/04/19 06:16:12;;;;;;;;;;;15.20;38.60;;;;;;5014196;28;19917;-58
2023/04/19 06:18:38;;;;;;;;;;;15.70;37.50;;;;;;5011311;28;19988;-58
2023/04/19 06:21:03;;;;;;;;;;;16.10;35.90;;;;;;5033313;28;19966;-58
2023/04/19 06:23:29;;;;;;;;;;;16.40;35.10;;;;;;5054206;28;19999;-59
2023/04/19 06:25:54;;;;;;;;;;;16.70;34.90;;;;;;5050125;28;20502;-57
2023/04/19 06:28:20;;;;;;;;;;;17.00;34.50;;;;;;5032287;28;19928;-57
2023/04/19 06:30:45;;;;;;;;;;;17.40;34.00;;;;;;5034042;28;20395;-58
2023/04/19 06:33:10;;;;;;;;;;;17.70;33.10;;;;;;5029288;28;19913;-59
2023/04/19 06:35:36;;;;;;;;;;;18.10;32.40;;;;;;5025686;28;19996;-58
2023/04/19 06:38:01;;;;;;;;;;;18.30;32.00;;;;;;5032975;28;20337;-59
2023/04/19 06:40:30;;;;;;;;;;;18.50;31.90;;;;;;5031113;28;19929;-59
2023/04/19 06:42:56;;;;;;;;;;;18.80;31.10;;;;;;5031598;28;20357;-59
2023/04/19 06:45:21;;;;;;;;;;;18.90;30.00;;;;;;5019235;28;19924;-59
2023/04/19 06:47:46;;;;;;;;;;;18.80;29.70;;;;;;5018852;28;19913;-57
2023/04/19 06:50:12;;;;;;;;;;;18.80;29.20;;;;;;5021816;28;19921;-61
2023/04/19 06:52:38;;;;;;;;;;;18.70;29.60;;;;;;5029918;28;19920;-59
2023/04/19 06:55:04;;;;;;;;;;;18.70;29.60;;;;;;5019680;28;19922;-59
2023/04/19 06:57:29;;;;;;;;;;;18.60;29.40;;;;;;5025682;28;20429;-59
2023/04/19 06:59:55;;;;;;;;;;;18.60;29.10;;;;;;5023742;28;19921;-60
2023/04/19 07:02:20;;;;;;;;;;;18.50;29.40;;;;;;5025645;28;19917;-59
2023/04/19 07:04:46;;;;;;;;;;;18.40;29.30;;;;;;5031949;28;19921;-59
2023/04/19 07:07:12;;;;;;;;;;;18.40;29.30;;;;;;5033588;28;19967;-59
2023/04/19 07:09:37;;;;;;;;;;;18.30;29.30;;;;;;5026462;28;20354;-59
2023/04/19 07:12:03;;;;;;;;;;;18.30;29.30;;;;;;5033315;28;19913;-59
2023/04/19 07:14:28;;;;;;;;;;;18.30;29.30;;;;;;5023298;28;19918;-58
2023/04/19 07:16:54;;;;;;;;;;;18.30;29.90;;;;;;5016000;28;19956;-58
2023/04/19 07:19:21;;;;;;;;;;;18.40;29.90;;;;;;5039844;28;19921;-57
2023/04/19 07:21:47;;;;;;;;;;;18.40;29.50;;;;;;5053352;28;19913;-58
2023/04/19 07:24:12;;;;;;;;;;;18.60;29.20;;;;;;5032348;28;19939;-58
2023/04/19 07:26:37;;;;;;;;;;;18.70;29.30;;;;;;5031554;28;19917;-61
2023/04/19 07:29:03;;;;;;;;;;;18.90;29.40;;;;;;5032718;28;19917;-58
2023/04/19 07:31:28;;;;;;;;;;;19.20;28.80;;;;;;5037577;28;19912;-58
2023/04/19 07:33:54;;;;;;;;;;;19.30;28.60;;;;;;5034236;28;20349;-58
2023/04/19 07:36:20;;;;;;;;;;;19.60;29.00;;;;;;5040470;28;19913;-59
2023/04/19 07:38:45;;;;;;;;;;;19.90;28.00;;;;;;5031803;28;19928;-59
2023/04/19 07:41:11;;;;;;;;;;;20.20;27.70;;;;;;5031728;28;19917;-58
2023/04/19 07:43:36;;;;;;;;;;;20.30;27.10;;;;;;5031995;28;19917;-59
2023/04/19 07:46:08;;;;;;;;;;;20.30;26.90;;;;;;5030518;28;20288;-58
2023/04/19 07:48:33;;;;;;;;;;;20.30;26.80;;;;;;5024935;28;19922;-58
2023/04/19 07:51:11;;;;;;;;;;;20.30;26.70;;;;;;5020809;28;19920;-59
2023/04/19 07:53:37;;;;;;;;;;;20.30;26.50;;;;;;5030535;28;19931;-59
2023/04/19 07:56:03;;;;;;;;;;;20.20;26.70;;;;;;5031569;28;19960;-58
2023/04/19 07:58:29;;;;;;;;;;;20.50;27.30;;;;;;5030272;28;19929;-59
2023/04/19 08:00:54;;;;;;;;;;;20.70;26.60;;;;;;5032289;28;19910;-58
2023/04/19 08:03:20;;;;;;;;;;;20.80;26.10;;;;;;5030382;28;19921;-59
2023/04/19 08:05:46;;;;;;;;;;;20.90;26.10;;;;;;5032418;28;19909;-59
2023/04/19 08:08:11;;;;;;;;;;;21.00;25.80;;;;;;5031465;28;19978;-59
2023/04/19 08:10:37;;;;;;;;;;;20.90;25.40;;;;;;5031398;28;19920;-59
2023/04/19 08:13:02;;;;;;;;;;;20.70;25.50;;;;;;5030999;28;19920;-65
2023/04/19 08:15:27;;;;;;;;;;;20.80;25.80;;;;;;5029814;28;19921;-57
2023/04/19 08:17:53;;;;;;;;;;;21.10;26.10;;;;;;5012461;28;19913;-58
2023/04/19 08:20:18;;;;;;;;;;;21.50;26.20;;;;;;5023100;28;20020;-58
2023/04/19 08:22:44;;;;;;;;;;;22.00;25.80;;;;;;5018676;28;19917;-58
2023/04/19 08:25:10;;;;;;;;;;;22.50;25.60;;;;;;5030935;28;20280;-60
2023/04/19 08:27:35;;;;;;;;;;;23.00;25.00;;;;;;5021931;28;19924;-60
2023/04/19 08:30:01;;;;;;;;;;;23.30;24.50;;;;;;5031697;28;19944;-59
2023/04/19 08:32:26;;;;;;;;;;;23.60;22.70;;;;;;5030819;28;19913;-59
2023/04/19 08:34:52;;;;;;;;;;;23.70;22.90;;;;;;5032657;28;20360;-58
2023/04/19 08:37:17;;;;;;;;;;;23.90;22.10;;;;;;5045282;28;19913;-59
2023/04/19 08:39:43;;;;;;;;;;;24.00;22.30;;;;;;5030268;28;19971;-59
2023/04/19 08:42:09;;;;;;;;;;;24.40;22.40;;;;;;5030906;28;19931;-58
2023/04/19 08:44:37;;;;;;;;;;;24.80;22.00;;;;;;5030106;28;20414;-58
2023/04/19 08:47:03;;;;;;;;;;;25.00;21.20;;;;;;5031116;28;19920;-59
2023/04/19 08:49:28;;;;;;;;;;;25.20;21.50;;;;;;5026169;28;19918;-59
2023/04/19 08:51:56;;;;;;;;;;;25.40;21.20;;;;;;5031449;28;20023;-59
2023/04/19 08:54:22;;;;;;;;;;;25.50;21.10;;;;;;5030941;28;19917;-58
2023/04/19 08:56:47;;;;;;;;;;;25.60;20.40;;;;;;5027038;28;19913;-59
2023/04/19 08:59:13;;;;;;;;;;;25.70;20.60;;;;;;5018563;28;19925;-59
2023/04/19 09:01:38;;;;;;;;;;;25.80;20.20;;;;;;5022426;28;19918;-59
2023/04/19 09:04:05;;;;;;;;;;;26.00;20.10;;;;;;5022553;28;19921;-59
2023/04/19 09:06:36;;;;;;;;;;;26.00;20.00;;;;;;5028329;28;19917;-59
2023/04/19 09:09:15;;;;;;;;;;;26.00;20.00;;;;;;5030562;28;19913;-58
2023/04/19 09:11:41;;;;;;;;;;;26.00;20.10;;;;;;5025588;28;20311;-59
2023/04/19 09:14:07;;;;;;;;;;;26.20;19.50;;;;;;5029375;28;19924;-58
2023/04/19 09:16:34;;;;;;;;;;;26.30;19.10;;;;;;5032168;28;19913;-59
2023/04/19 09:19:00;;;;;;;;;;;26.20;18.90;;;;;;5029632;28;19925;-59
2023/04/19 09:21:29;;;;;;;;;;;26.20;18.50;;;;;;5029297;28;20007;-59
2023/04/19 09:23:55;;;;;;;;;;;26.10;18.10;;;;;;5026947;28;19925;-59
2023/04/19 09:26:20;;;;;;;;;;;25.80;18.60;;;;;;5028207;28;20356;-58
2023/04/19 09:28:55;;;;;;;;;;;25.80;18.30;;;;;;5028001;28;19921;-58
2023/04/19 09:31:21;;;;;;;;;;;25.70;18.70;;;;;;5030184;28;20365;-59
2023/04/19 09:33:46;;;;;;;;;;;25.50;18.30;;;;;;5029155;28;19921;-59
2023/04/19 09:36:25;;;;;;;;;;;25.50;18.30;;;;;;5036442;28;19925;-59
2023/04/19 09:38:51;;;;;;;;;;;25.30;17.70;;;;;;5028605;28;20004;-59
2023/04/19 09:41:16;;;;;;;;;;;25.20;18.00;;;;;;5030380;28;19964;-59
2023/04/19 09:43:42;;;;;;;;;;;25.10;18.50;;;;;;5029297;28;19963;-59
2023/04/19 09:46:07;;;;;;;;;;;25.20;18.30;;;;;;5021552;28;19909;-58
2023/04/19 09:48:33;;;;;;;;;;;25.20;18.00;;;;;;5030308;28;20284;-60
2023/04/19 09:51:00;;;;;;;;;;;25.10;18.10;;;;;;5030376;28;19923;-58
2023/04/19 09:53:26;;;;;;;;;;;25.20;18.20;;;;;;5031781;28;19936;-59
2023/04/19 09:55:52;;;;;;;;;;;25.20;18.30;;;;;;5036799;28;20270;-59
2023/04/19 09:58:18;;;;;;;;;;;25.30;17.80;;;;;;5039226;28;20373;-60
2023/04/19 10:00:46;;;;;;;;;;;25.30;18.00;;;;;;5035077;28;19992;-60
2023/04/19 10:03:12;;;;;;;;;;;25.50;18.10;;;;;;5036720;28;20051;-60
2023/04/19 10:05:39;;;;;;;;;;;25.50;17.60;;;;;;5030794;28;20365;-58
2023/04/19 10:08:06;;;;;;;;;;;25.50;17.50;;;;;;5025124;28;20316;-58
2023/04/19 10:10:31;;;;;;;;;;;25.50;17.70;;;;;;5033299;28;19926;-59
2023/04/19 10:12:58;;;;;;;;;;;25.70;17.30;;;;;;5032478;28;20084;-59
2023/04/19 10:15:24;;;;;;;;;;;25.70;17.20;;;;;;5029375;28;19914;-64
2023/04/19 10:17:50;;;;;;;;;;;25.80;17.40;;;;;;5032564;28;19940;-58
2023/04/19 10:20:19;;;;;;;;;;;26.10;17.20;;;;;;5032460;28;19947;-59
2023/04/19 10:22:44;;;;;;;;;;;26.20;17.00;;;;;;5023752;28;19920;-59
2023/04/19 10:25:11;;;;;;;;;;;26.40;16.90;;;;;;5026997;28;19925;-59
2023/04/19 10:27:37;;;;;;;;;;;26.50;16.20;;;;;;5034036;28;19914;-58
2023/04/19 10:30:06;;;;;;;;;;;26.30;15.50;;;;;;5017465;28;20421;-59
2023/04/19 10:32:39;;;;;;;;;;;26.20;15.70;;;;;;5015672;28;20262;-58
2023/04/19 10:35:07;;;;;;;;;;;26.30;16.20;;;;;;5017549;28;19917;-59
2023/04/19 10:37:33;;;;;;;;;;;26.60;16.30;;;;;;5029508;28;20398;-58
2023/04/19 10:39:58;;;;;;;;;;;26.60;15.50;;;;;;5032448;28;19968;-59
2023/04/19 10:42:24;;;;;;;;;;;26.50;15.50;;;;;;5019125;28;19913;-60
2023/04/19 10:45:08;;;;;;;;;;;26.40;15.10;;;;;;5029457;28;19956;-60
2023/04/19 10:47:39;;;;;;;;;;;26.30;15.10;;;;;;5032858;28;19913;-60
2023/04/19 10:50:05;;;;;;;;;;;26.30;14.60;;;;;;5032683;28;19917;-60
2023/04/19 10:52:31;;;;;;;;;;;26.10;14.30;;;;;;5031876;28;19986;-59
2023/04/19 10:54:56;;;;;;;;;;;25.80;13.90;;;;;;5028965;28;19914;-59
2023/04/19 10:57:24;;;;;;;;;;;25.70;14.10;;;;;;5032383;28;19913;-60
2023/04/19 11:00:09;;;;;;;;;;;25.70;14.50;;;;;;5032087;28;19928;-58
2023/04/19 11:02:35;;;;;;;;;;;25.50;14.60;;;;;;5032192;28;19943;-59
2023/04/19 11:05:01;;;;;;;;;;;25.50;14.80;;;;;;5028465;28;19917;-60
2023/04/19 11:07:26;;;;;;;;;;;25.60;15.10;;;;;;5032506;28;19913;-60
2023/04/19 11:09:52;;;;;;;;;;;25.70;15.40;;;;;;5031674;28;19963;-60
2023/04/19 11:12:18;;;;;;;;;;;26.00;15.00;;;;;;5031699;28;20357;-58
2023/04/19 11:14:51;;;;;;;;;;;25.90;15.10;;;;;;5027938;28;19925;-58
2023/04/19 11:17:18;;;;;;;;;;;25.90;15.50;;;;;;5031258;28;19913;-59
2023/04/19 11:19:44;;;;;;;;;;;26.00;15.70;;;;;;5026769;28;19928;-59
2023/04/19 11:22:10;;;;;;;;;;;26.20;15.50;;;;;;5030803;28;19917;-59
2023/04/19 11:24:35;;;;;;;;;;;26.20;15.30;;;;;;5027695;28;20345;-59
2023/04/19 11:27:06;;;;;;;;;;;26.40;15.60;;;;;;5030003;28;19963;-59
2023/04/19 11:29:31;;;;;;;;;;;26.80;15.30;;;;;;5026117;28;19964;-59
2023/04/19 11:31:58;;;;;;;;;;;26.90;15.10;;;;;;5029613;28;19913;-59
2023/04/19 11:34:24;;;;;;;;;;;26.80;14.70;;;;;;5027284;28;19929;-59
2023/04/19 11:36:52;;;;;;;;;;;26.90;14.90;;;;;;5029712;28;19966;-59
2023/04/19 11:39:18;;;;;;;;;;;27.00;14.90;;;;;;5027995;28;19964;-59
2023/04/19 11:41:45;;;;;;;;;;;27.00;14.70;;;;;;5033778;28;19952;-60
2023/04/19 11:44:11;;;;;;;;;;;26.90;14.60;;;;;;5028566;28;20377;-59
2023/04/19 11:46:37;;;;;;;;;;;26.70;14.50;;;;;;5026098;28;19913;-66
2023/04/19 11:49:02;;;;;;;;;;;26.80;15.00;;;;;;5029122;28;19913;-59
2023/04/19 11:51:28;;;;;;;;;;;27.00;14.60;;;;;;5029460;28;19922;-59
2023/04/19 11:53:53;;;;;;;;;;;27.00;14.70;;;;;;5029210;28;19917;-59
2023/04/19 11:56:19;;;;;;;;;;;27.00;14.70;;;;;;5017482;28;19918;-62
2023/04/19 11:58:47;;;;;;;;;;;27.20;14.90;;;;;;5026469;28;20324;-61
2023/04/19 12:01:13;;;;;;;;;;;27.30;14.90;;;;;;5029519;28;19920;-59
2023/04/19 12:03:43;;;;;;;;;;;27.50;14.90;;;;;;5027964;28;19921;-59
2023/04/19 12:06:13;;;;;;;;;;;27.40;14.30;;;;;;5024559;28;19914;-60
2023/04/19 12:08:41;;;;;;;;;;;27.30;14.30;;;;;;5028391;28;19917;-59
2023/04/19 12:11:07;;;;;;;;;;;27.30;14.20;;;;;;5028648;28;19909;-59
2023/04/19 12:13:32;;;;;;;;;;;27.30;14.10;;;;;;5028886;28;20004;-59
2023/04/19 12:15:58;;;;;;;;;;;27.30;14.20;;;;;;5014774;28;20027;-58
2023/04/19 12:18:24;;;;;;;;;;;27.50;14.50;;;;;;5020303;28;19925;-61
2023/04/19 12:20:50;;;;;;;;;;;27.70;14.20;;;;;;5029033;28;19968;-60
2023/04/19 12:23:16;;;;;;;;;;;27.70;14.10;;;;;;5027814;28;19925;-59
2023/04/19 12:25:43;;;;;;;;;;;27.30;14.00;;;;;;5024394;28;20003;-60
2023/04/19 12:28:08;;;;;;;;;;;27.50;14.20;;;;;;5026451;28;19953;-59
2023/04/19 12:30:35;;;;;;;;;;;27.70;14.20;;;;;;5027757;28;19968;-60
2023/04/19 12:33:01;;;;;;;;;;;27.80;13.80;;;;;;5025813;28;20368;-58
2023/04/19 12:35:27;;;;;;;;;;;27.80;13.50;;;;;;5023418;28;19914;-58
2023/04/19 12:37:56;;;;;;;;;;;27.70;13.50;;;;;;5024298;28;20124;-61
2023/04/19 12:40:22;;;;;;;;;;;27.30;13.60;;;;;;5026823;28;20120;-59
2023/04/19 12:42:47;;;;;;;;;;;27.30;13.70;;;;;;5018471;28;20297;-59
2023/04/19 12:45:13;;;;;;;;;;;27.30;13.70;;;;;;5012611;28;19920;-59
2023/04/19 12:47:38;;;;;;;;;;;26.70;13.60;;;;;;5020787;28;19913;-59
2023/04/19 12:50:04;;;;;;;;;;;26.60;14.10;;;;;;5025526;28;20324;-59
2023/04/19 12:52:30;;;;;;;;;;;26.70;14.00;;;;;;5024942;28;20304;-59
2023/04/19 12:54:55;;;;;;;;;;;26.60;13.80;;;;;;5026204;28;19949;-59
2023/04/19 12:57:21;;;;;;;;;;;26.70;13.90;;;;;;5025776;28;20362;-60
2023/04/19 12:59:46;;;;;;;;;;;26.50;13.70;;;;;;5026348;28;20391;-60
2023/04/19 13:02:11;;;;;;;;;;;26.30;13.80;;;;;;5026340;28;19948;-60
2023/04/19 13:04:37;;;;;;;;;;;26.30;14.00;;;;;;5026563;28;19913;-59
2023/04/19 13:07:02;;;;;;;;;;;26.30;13.70;;;;;;5026809;28;19940;-60
2023/04/19 13:09:28;;;;;;;;;;;26.10;13.80;;;;;;5026857;28;20217;-59
2023/04/19 13:11:53;;;;;;;;;;;25.70;14.30;;;;;;5040069;28;20008;-59
2023/04/19 13:14:19;;;;;;;;;;;25.40;14.40;;;;;;5025719;28;20012;-60
2023/04/19 13:16:44;;;;;;;;;;;25.40;14.70;;;;;;5025365;28;19920;-60
2023/04/19 13:19:10;;;;;;;;;;;25.70;14.70;;;;;;5025803;28;19925;-60
2023/04/19 13:21:35;;;;;;;;;;;26.10;14.80;;;;;;5026245;28;19921;-60
2023/04/19 13:24:01;;;;;;;;;;;26.10;14.40;;;;;;5017595;28;19924;-59
2023/04/19 13:26:26;;;;;;;;;;;25.50;14.80;;;;;;5024129;28;20008;-59
2023/04/19 13:28:51;;;;;;;;;;;25.30;15.00;;;;;;5022492;28;20047;-60
2023/04/19 13:31:17;;;;;;;;;;;24.90;15.00;;;;;;5025171;28;20537;-59
2023/04/19 13:33:42;;;;;;;;;;;24.80;14.90;;;;;;5026218;28;19952;-60
2023/04/19 13:36:08;;;;;;;;;;;24.10;15.10;;;;;;5031645;28;19916;-61
2023/04/19 13:38:33;;;;;;;;;;;23.40;15.50;;;;;;4964270;28;1733210;-60
2023/04/19 13:40:59;;;;;;;;;;;23.60;15.80;;;;;;5019493;28;20126;-59
2023/04/19 13:43:25;;;;;;;;;;;23.80;15.70;;;;;;5027528;28;19966;-59
2023/04/19 13:45:50;;;;;;;;;;;23.90;15.10;;;;;;5021660;28;20301;-61
2023/04/19 13:48:16;;;;;;;;;;;24.00;15.00;;;;;;5026908;28;19928;-61
2023/04/19 13:50:41;;;;;;;;;;;23.90;14.90;;;;;;5024832;28;19909;-59
2023/04/19 13:53:07;;;;;;;;;;;23.60;14.70;;;;;;5025956;28;19955;-58
2023/04/19 13:55:32;;;;;;;;;;;23.30;15.10;;;;;;5026595;28;19960;-59
2023/04/19 13:57:58;;;;;;;;;;;22.90;15.50;;;;;;5025644;28;20440;-59
2023/04/19 14:00:23;;;;;;;;;;;22.60;16.00;;;;;;5027168;28;20490;-61
2023/04/19 14:02:49;;;;;;;;;;;22.30;16.00;;;;;;5023494;28;19913;-59
2023/04/19 14:05:14;;;;;;;;;;;22.00;16.40;;;;;;5018211;28;19939;-59
2023/04/19 14:07:40;;;;;;;;;;;21.70;16.70;;;;;;5007484;28;19921;-59
2023/04/19 14:10:06;;;;;;;;;;;21.40;17.00;;;;;;5023686;28;19925;-60